Time;durP1;ratioP1;P1;durP2;ratioP2;P2;SDS_P1;SDS_P2;PMS_P1;PMS_P2;Temp;Humidity;BMP_temperature;BMP_pressure;BME280_temperature;BME280_humidity;BME280_pressure;Samples;Min_cycle;Max_cycle;Signal;HPM_P1;HPM_P2
2023/03/08 00:00:49;;;;;;;5.95;1.38;;;;;;;;;;5102657;28;20493;-73
2023/03/08 00:03:19;;;;;;;6.47;1.65;;;;;;;;;;5109690;28;20039;-74
2023/03/08 00:05:49;;;;;;;3.28;1.40;;;;;;;;;;5110395;28;20040;-73
2023/03/08 00:08:21;;;;;;;4.65;1.25;;;;;;;;;;5109076;28;20061;-72
2023/03/08 00:10:51;;;;;;;7.05;1.48;;;;;;;;;;5107915;28;20055;-72
2023/03/08 00:13:21;;;;;;;4.43;1.20;;;;;;;;;;5107294;28;20074;-72
2023/03/08 00:15:51;;;;;;;2.33;1.20;;;;;;;;;;5107516;28;20051;-76
2023/03/08 00:18:22;;;;;;;4.53;0.90;;;;;;;;;;5108336;28;20409;-74
2023/03/08 00:21:00;;;;;;;4.65;1.33;;;;;;;;;;5109261;28;20532;-72
2023/03/08 00:23:31;;;;;;;3.88;1.13;;;;;;;;;;5109321;28;20414;-72
2023/03/08 00:26:01;;;;;;;4.65;1.35;;;;;;;;;;5109496;28;20051;-74
2023/03/08 00:28:32;;;;;;;3.83;1.08;;;;;;;;;;5108532;28;20047;-73
2023/03/08 00:31:10;;;;;;;3.58;1.10;;;;;;;;;;5109844;28;20051;-73
2023/03/08 00:33:41;;;;;;;5.13;1.42;;;;;;;;;;5109350;28;20050;-73
2023/03/08 00:36:18;;;;;;;2.53;1.10;;;;;;;;;;5107338;27;20048;-73
2023/03/08 00:38:51;;;;;;;3.15;1.20;;;;;;;;;;5107112;28;20502;-73
2023/03/08 00:41:21;;;;;;;1.77;0.95;;;;;;;;;;5107806;28;20418;-74
2023/03/08 00:43:52;;;;;;;2.95;0.90;;;;;;;;;;5108880;28;20498;-75
2023/03/08 00:46:22;;;;;;;5.53;0.77;;;;;;;;;;5108039;28;21119;-75
2023/03/08 00:48:53;;;;;;;8.60;0.90;;;;;;;;;;5108436;28;20664;-75
2023/03/08 00:51:25;;;;;;;7.57;1.05;;;;;;;;;;5108011;27;20048;-74
2023/03/08 00:53:55;;;;;;;4.85;0.90;;;;;;;;;;5109658;28;20044;-73
2023/03/08 00:56:26;;;;;;;2.47;0.90;;;;;;;;;;5108084;28;20051;-73
2023/03/08 00:58:58;;;;;;;3.45;1.52;;;;;;;;;;5108418;28;20044;-73
2023/03/08 01:01:28;;;;;;;3.17;1.20;;;;;;;;;;5106037;27;20062;-73
2023/03/08 01:04:01;;;;;;;0.82;0.65;;;;;;;;;;5107161;28;20386;-73
2023/03/08 01:06:31;;;;;;;6.40;0.98;;;;;;;;;;5106501;28;20062;-73
2023/03/08 01:09:03;;;;;;;2.22;0.80;;;;;;;;;;5107828;28;20047;-73
2023/03/08 01:11:35;;;;;;;4.18;1.10;;;;;;;;;;5107706;28;20047;-75
2023/03/08 01:14:09;;;;;;;7.18;1.00;;;;;;;;;;5106952;28;20052;-74
2023/03/08 01:16:41;;;;;;;2.47;0.90;;;;;;;;;;5108648;28;20040;-72
2023/03/08 01:19:13;;;;;;;7.65;1.05;;;;;;;;;;5108036;28;20043;-74
2023/03/08 01:21:43;;;;;;;6.55;1.10;;;;;;;;;;5107891;28;20044;-74
2023/03/08 01:24:14;;;;;;;3.08;0.93;;;;;;;;;;5105987;28;20533;-73
2023/03/08 01:26:44;;;;;;;5.80;0.90;;;;;;;;;;5108414;28;20058;-72
2023/03/08 01:29:15;;;;;;;9.40;1.20;;;;;;;;;;5104998;27;20051;-78
2023/03/08 01:31:46;;;;;;;12.23;1.13;;;;;;;;;;5096975;28;20048;-75
2023/03/08 01:34:16;;;;;;;7.95;1.30;;;;;;;;;;5095610;28;20048;-74
2023/03/08 01:36:48;;;;;;;3.50;0.90;;;;;;;;;;5092704;28;20070;-73
2023/03/08 01:39:18;;;;;;;5.28;1.00;;;;;;;;;;5097803;27;20039;-74
2023/03/08 01:41:50;;;;;;;5.38;1.08;;;;;;;;;;5098428;28;20047;-72
2023/03/08 01:44:24;;;;;;;6.07;0.70;;;;;;;;;;5105087;28;20048;-74
2023/03/08 01:46:54;;;;;;;1.63;0.80;;;;;;;;;;5105757;27;20047;-73
2023/03/08 01:49:42;;;;;;;7.97;1.10;;;;;;;;;;5107231;28;20046;-72
2023/03/08 01:52:23;;;;;;;2.95;1.13;;;;;;;;;;5108603;28;20047;-72
2023/03/08 01:54:57;;;;;;;5.25;1.08;;;;;;;;;;5107577;28;20044;-73
2023/03/08 01:57:52;;;;;;;5.68;1.38;;;;;;;;;;5106581;28;20055;-73
2023/03/08 02:00:25;;;;;;;6.13;1.02;;;;;;;;;;5105511;28;20059;-72
2023/03/08 02:03:11;;;;;;;13.45;0.90;;;;;;;;;;5107308;27;20399;-74
2023/03/08 02:05:43;;;;;;;3.08;0.88;;;;;;;;;;5106198;28;20049;-73
2023/03/08 02:08:16;;;;;;;8.25;0.80;;;;;;;;;;5107297;28;20086;-74
2023/03/08 02:10:47;;;;;;;8.90;0.93;;;;;;;;;;5089834;28;20048;-74
2023/03/08 02:13:21;;;;;;;4.32;0.60;;;;;;;;;;5105032;28;20421;-74
2023/03/08 02:15:57;;;;;;;4.22;1.00;;;;;;;;;;5105603;28;20059;-74
2023/03/08 02:18:28;;;;;;;3.88;0.98;;;;;;;;;;5106532;28;20061;-73
2023/03/08 02:20:59;;;;;;;12.25;1.35;;;;;;;;;;5105064;28;20074;-74
2023/03/08 02:23:31;;;;;;;13.15;1.05;;;;;;;;;;5105821;28;20051;-75
2023/03/08 02:26:04;;;;;;;8.23;1.10;;;;;;;;;;5107303;28;20048;-72
2023/03/08 02:28:37;;;;;;;6.40;0.90;;;;;;;;;;5106213;28;20052;-74
2023/03/08 02:31:07;;;;;;;6.10;1.00;;;;;;;;;;5106263;28;20059;-73
2023/03/08 02:33:38;;;;;;;1.88;0.85;;;;;;;;;;5106210;28;20498;-74
2023/03/08 02:36:09;;;;;;;5.60;0.80;;;;;;;;;;5107155;28;20414;-73
2023/03/08 02:38:40;;;;;;;16.92;1.67;;;;;;;;;;5107512;28;20056;-73
2023/03/08 02:41:09;;;;;;;6.70;0.90;;;;;;;;;;5105727;28;20066;-75
2023/03/08 02:43:41;;;;;;;4.65;0.80;;;;;;;;;;5107536;28;20048;-73
2023/03/08 02:46:13;;;;;;;11.63;1.30;;;;;;;;;;5106880;28;20153;-74
2023/03/08 02:48:45;;;;;;;2.85;1.08;;;;;;;;;;5107198;28;20059;-72
2023/03/08 02:51:15;;;;;;;7.43;1.13;;;;;;;;;;5107271;28;20044;-74
2023/03/08 02:53:47;;;;;;;6.00;1.25;;;;;;;;;;5107362;28;20044;-72
2023/03/08 02:56:18;;;;;;;4.93;1.10;;;;;;;;;;5106122;28;20059;-74
2023/03/08 02:58:48;;;;;;;2.67;0.90;;;;;;;;;;5105435;28;20086;-73
2023/03/08 03:01:18;;;;;;;3.42;1.10;;;;;;;;;;5106654;28;20055;-72
2023/03/08 03:03:49;;;;;;;9.73;1.08;;;;;;;;;;5089118;28;20510;-73
2023/03/08 03:06:21;;;;;;;14.30;1.10;;;;;;;;;;5106587;28;20069;-75
2023/03/08 03:08:56;;;;;;;17.23;1.42;;;;;;;;;;5108564;28;20142;-72
2023/03/08 03:11:26;;;;;;;6.60;1.30;;;;;;;;;;5109565;28;20514;-73
2023/03/08 03:13:58;;;;;;;15.13;1.42;;;;;;;;;;5108728;27;20052;-74
2023/03/08 03:16:36;;;;;;;7.57;1.25;;;;;;;;;;5109513;27;20047;-75
2023/03/08 03:19:06;;;;;;;9.38;1.45;;;;;;;;;;5111063;28;20064;-72
2023/03/08 03:21:39;;;;;;;6.07;1.08;;;;;;;;;;5110325;28;20118;-74
2023/03/08 03:24:09;;;;;;;4.25;0.90;;;;;;;;;;5111069;28;20054;-74
2023/03/08 03:26:51;;;;;;;8.57;1.20;;;;;;;;;;5109676;27;20052;-71
2023/03/08 03:29:24;;;;;;;4.18;1.00;;;;;;;;;;5109913;28;20051;-74
2023/03/08 03:32:05;;;;;;;5.32;0.90;;;;;;;;;;5109300;27;20854;-74
2023/03/08 03:34:35;;;;;;;2.47;0.50;;;;;;;;;;5092520;28;20422;-73
2023/03/08 03:37:06;;;;;;;5.40;1.38;;;;;;;;;;5109548;27;20056;-74
2023/03/08 03:39:41;;;;;;;5.18;0.90;;;;;;;;;;5108375;27;20074;-72
2023/03/08 03:42:15;;;;;;;5.90;0.93;;;;;;;;;;5109291;27;20054;-73
2023/03/08 03:44:55;;;;;;;8.80;1.02;;;;;;;;;;5109318;27;20071;-74
2023/03/08 03:47:26;;;;;;;8.07;1.27;;;;;;;;;;5108914;27;20044;-72
2023/03/08 03:50:00;;;;;;;6.22;1.27;;;;;;;;;;5108801;27;20055;-74
2023/03/08 03:52:38;;;;;;;6.15;0.95;;;;;;;;;;5108787;27;20093;-73
2023/03/08 03:55:09;;;;;;;9.63;1.48;;;;;;;;;;5109076;28;20059;-72
2023/03/08 03:57:41;;;;;;;13.90;0.93;;;;;;;;;;5108017;28;20048;-73
2023/03/08 04:00:16;;;;;;;7.28;1.30;;;;;;;;;;5108004;28;20510;-74
2023/03/08 04:02:55;;;;;;;7.38;0.80;;;;;;;;;;5108782;27;20059;-73
2023/03/08 04:05:28;;;;;;;5.35;1.00;;;;;;;;;;5109018;27;20043;-74
2023/03/08 04:07:59;;;;;;;9.43;1.13;;;;;;;;;;5110275;28;20086;-72
2023/03/08 04:10:33;;;;;;;5.75;0.90;;;;;;;;;;5108836;27;20043;-75
2023/03/08 04:13:04;;;;;;;12.18;1.38;;;;;;;;;;5109096;28;20047;-74
2023/03/08 04:15:35;;;;;;;13.43;1.00;;;;;;;;;;5108537;28;20510;-75
2023/03/08 04:18:09;;;;;;;6.70;1.08;;;;;;;;;;5108125;28;20051;-74
2023/03/08 04:20:45;;;;;;;10.57;1.15;;;;;;;;;;5107335;27;20043;-73
2023/03/08 04:23:16;;;;;;;5.30;1.25;;;;;;;;;;5107663;28;20062;-73
2023/03/08 04:25:48;;;;;;;5.80;1.30;;;;;;;;;;5108219;28;20047;-73
2023/03/08 04:28:20;;;;;;;9.60;1.52;;;;;;;;;;5108193;28;20050;-73
2023/03/08 04:30:51;;;;;;;9.73;1.38;;;;;;;;;;5108630;27;20058;-71
2023/03/08 04:33:21;;;;;;;5.20;1.02;;;;;;;;;;5108163;28;20066;-73
2023/03/08 04:35:51;;;;;;;7.28;1.20;;;;;;;;;;5109221;28;20518;-73
2023/03/08 04:38:25;;;;;;;8.88;1.25;;;;;;;;;;5108114;27;20427;-74
2023/03/08 04:41:09;;;;;;;5.93;1.25;;;;;;;;;;5108074;27;20060;-73
2023/03/08 04:43:56;;;;;;;8.80;1.40;;;;;;;;;;5107734;28;20052;-72
2023/03/08 04:46:36;;;;;;;12.00;1.60;;;;;;;;;;5107306;28;20055;-74
2023/03/08 04:49:06;;;;;;;6.47;1.10;;;;;;;;;;5107231;28;20058;-74
2023/03/08 04:51:42;;;;;;;5.10;1.05;;;;;;;;;;5108614;28;20063;-74
2023/03/08 04:54:14;;;;;;;7.82;1.20;;;;;;;;;;5107696;27;20051;-71
2023/03/08 04:56:49;;;;;;;5.97;1.15;;;;;;;;;;5107879;28;20051;-74
2023/03/08 04:59:24;;;;;;;9.30;1.20;;;;;;;;;;5107218;28;20532;-72
2023/03/08 05:01:57;;;;;;;7.10;1.30;;;;;;;;;;5107743;28;20048;-74
2023/03/08 05:04:30;;;;;;;18.08;1.40;;;;;;;;;;5107556;28;20055;-74
2023/03/08 05:07:01;;;;;;;4.88;1.15;;;;;;;;;;5106974;28;20052;-71
2023/03/08 05:09:35;;;;;;;4.30;1.20;;;;;;;;;;5106891;28;20055;-72
2023/03/08 05:12:05;;;;;;;8.68;1.30;;;;;;;;;;5107735;27;20833;-73
2023/03/08 05:14:50;;;;;;;18.40;1.88;;;;;;;;;;5106739;28;20418;-73
2023/03/08 05:17:21;;;;;;;3.65;1.10;;;;;;;;;;5107384;27;20051;-72
2023/03/08 05:19:51;;;;;;;5.18;1.00;;;;;;;;;;5108977;28;20048;-72
2023/03/08 05:22:27;;;;;;;8.68;1.00;;;;;;;;;;5107067;28;20055;-73
2023/03/08 05:24:59;;;;;;;5.07;1.20;;;;;;;;;;5107269;28;20047;-74
2023/03/08 05:27:32;;;;;;;12.60;1.02;;;;;;;;;;5107051;28;20411;-74
2023/03/08 05:30:05;;;;;;;5.20;1.00;;;;;;;;;;5107069;27;20054;-74
2023/03/08 05:32:36;;;;;;;10.48;1.20;;;;;;;;;;5107347;28;20051;-73
2023/03/08 05:35:08;;;;;;;3.67;1.10;;;;;;;;;;5107056;27;20494;-73
2023/03/08 05:37:39;;;;;;;9.60;1.10;;;;;;;;;;5108186;28;20048;-74
2023/03/08 05:40:10;;;;;;;6.03;1.10;;;;;;;;;;5107875;28;20048;-74
2023/03/08 05:42:42;;;;;;;7.80;1.10;;;;;;;;;;5106862;28;20411;-74
2023/03/08 05:45:15;;;;;;;7.32;1.27;;;;;;;;;;5107227;27;20061;-73
2023/03/08 05:47:46;;;;;;;4.18;1.08;;;;;;;;;;5108260;28;20046;-71
2023/03/08 05:50:16;;;;;;;6.50;1.17;;;;;;;;;;5108250;28;20465;-71
2023/03/08 05:52:50;;;;;;;8.82;1.10;;;;;;;;;;5106317;27;20536;-73
2023/03/08 05:55:25;;;;;;;6.10;1.20;;;;;;;;;;5106671;27;20052;-74
2023/03/08 05:57:57;;;;;;;10.80;1.05;;;;;;;;;;5105878;28;20536;-74
2023/03/08 06:00:28;;;;;;;6.70;0.95;;;;;;;;;;5106552;27;20055;-73
2023/03/08 06:03:02;;;;;;;8.20;1.52;;;;;;;;;;5106771;28;20074;-73
2023/03/08 06:05:36;;;;;;;3.17;1.00;;;;;;;;;;5106013;27;20048;-72
2023/03/08 06:08:07;;;;;;;10.45;1.20;;;;;;;;;;5108286;28;20051;-74
2023/03/08 06:10:37;;;;;;;4.80;1.20;;;;;;;;;;5107744;28;20047;-73
2023/03/08 06:13:07;;;;;;;12.40;0.90;;;;;;;;;;5106154;28;20334;-74
2023/03/08 06:15:37;;;;;;;8.40;0.90;;;;;;;;;;5106361;27;20048;-73
2023/03/08 06:18:09;;;;;;;11.70;1.50;;;;;;;;;;5106052;28;20049;-72
2023/03/08 06:20:40;;;;;;;13.00;1.10;;;;;;;;;;5105866;27;20051;-74
2023/03/08 06:23:10;;;;;;;9.23;1.20;;;;;;;;;;5105121;27;20062;-74
2023/03/08 06:25:43;;;;;;;6.35;1.10;;;;;;;;;;5106287;28;20052;-73
2023/03/08 06:28:15;;;;;;;11.38;1.02;;;;;;;;;;5105916;27;20043;-74
2023/03/08 06:30:50;;;;;;;9.25;1.15;;;;;;;;;;5106179;28;20525;-72
2023/03/08 06:33:28;;;;;;;7.05;1.10;;;;;;;;;;5106087;28;20048;-73
2023/03/08 06:36:03;;;;;;;9.82;0.93;;;;;;;;;;5105987;27;20403;-74
2023/03/08 06:38:36;;;;;;;10.05;1.27;;;;;;;;;;5103681;28;20052;-72
2023/03/08 06:41:09;;;;;;;10.07;1.20;;;;;;;;;;5105452;28;20047;-74
2023/03/08 06:43:39;;;;;;;14.82;1.15;;;;;;;;;;5106536;28;20518;-73
2023/03/08 06:46:15;;;;;;;7.50;1.08;;;;;;;;;;5105787;28;20043;-73
2023/03/08 06:48:48;;;;;;;5.22;1.40;;;;;;;;;;5105324;28;20062;-72
2023/03/08 06:51:19;;;;;;;8.70;1.92;;;;;;;;;;5105960;28;20043;-72
2023/03/08 06:53:50;;;;;;;14.13;1.00;;;;;;;;;;5105221;28;20509;-74
2023/03/08 06:56:23;;;;;;;3.97;1.20;;;;;;;;;;5105950;28;20545;-74
2023/03/08 06:58:54;;;;;;;2.75;0.90;;;;;;;;;;5105349;28;20054;-72
2023/03/08 07:01:24;;;;;;;13.07;1.00;;;;;;;;;;5105513;28;20050;-74
2023/03/08 07:03:54;;;;;;;12.00;1.30;;;;;;;;;;5106430;28;20422;-72
2023/03/08 07:06:24;;;;;;;7.22;1.08;;;;;;;;;;5106565;28;20051;-75
2023/03/08 07:08:54;;;;;;;4.82;0.90;;;;;;;;;;5106738;28;20051;-73
2023/03/08 07:11:26;;;;;;;7.53;1.27;;;;;;;;;;5106746;28;20063;-74
2023/03/08 07:13:58;;;;;;;14.43;1.35;;;;;;;;;;5105276;28;20836;-74
2023/03/08 07:16:29;;;;;;;10.63;1.15;;;;;;;;;;5106478;28;20051;-75
2023/03/08 07:19:02;;;;;;;11.18;1.15;;;;;;;;;;5105692;28;20047;-73
2023/03/08 07:21:33;;;;;;;7.47;1.02;;;;;;;;;;5107395;28;20852;-74
2023/03/08 07:24:04;;;;;;;13.68;1.42;;;;;;;;;;5106546;28;20502;-73
2023/03/08 07:26:34;;;;;;;12.32;1.08;;;;;;;;;;5106386;28;20429;-74
2023/03/08 07:29:04;;;;;;;11.00;1.20;;;;;;;;;;5106182;28;20518;-73
2023/03/08 07:31:37;;;;;;;10.65;1.40;;;;;;;;;;5106396;28;20237;-72
2023/03/08 07:34:09;;;;;;;7.70;1.30;;;;;;;;;;5105815;28;20048;-73
2023/03/08 07:36:39;;;;;;;6.38;1.10;;;;;;;;;;5105375;28;20057;-73
2023/03/08 07:39:09;;;;;;;13.43;1.13;;;;;;;;;;5106369;28;20046;-74
2023/03/08 07:41:39;;;;;;;13.63;1.48;;;;;;;;;;5106653;28;20047;-73
2023/03/08 07:44:09;;;;;;;10.05;1.40;;;;;;;;;;5106728;28;20051;-74
2023/03/08 07:46:39;;;;;;;4.07;0.90;;;;;;;;;;5106107;28;20403;-72
2023/03/08 07:49:10;;;;;;;9.00;1.00;;;;;;;;;;5106051;28;20039;-73
2023/03/08 07:51:41;;;;;;;13.60;1.35;;;;;;;;;;5105710;28;20043;-74
2023/03/08 07:54:13;;;;;;;15.82;1.45;;;;;;;;;;5105275;28;20063;-73
2023/03/08 07:56:45;;;;;;;4.68;0.98;;;;;;;;;;5109776;28;20051;-71
2023/03/08 07:59:15;;;;;;;6.18;0.80;;;;;;;;;;5109788;28;20055;-75
2023/03/08 08:01:45;;;;;;;9.35;0.90;;;;;;;;;;5110052;28;20051;-75
2023/03/08 08:04:16;;;;;;;7.32;0.85;;;;;;;;;;5109940;28;20337;-74
2023/03/08 08:06:47;;;;;;;8.65;1.35;;;;;;;;;;5109616;28;20047;-73
2023/03/08 08:09:17;;;;;;;11.55;1.20;;;;;;;;;;5110403;28;20050;-71
2023/03/08 08:11:47;;;;;;;9.80;1.13;;;;;;;;;;5110199;28;20043;-73
2023/03/08 08:14:17;;;;;;;6.38;0.90;;;;;;;;;;5109884;28;20055;-72
2023/03/08 08:16:47;;;;;;;7.55;1.20;;;;;;;;;;5109997;28;20035;-74
2023/03/08 08:19:18;;;;;;;7.72;1.33;;;;;;;;;;5109809;28;20054;-73
2023/03/08 08:21:48;;;;;;;10.25;1.27;;;;;;;;;;5109775;28;20062;-73
2023/03/08 08:24:18;;;;;;;12.98;1.33;;;;;;;;;;5108351;28;20050;-74
2023/03/08 08:26:48;;;;;;;8.05;1.10;;;;;;;;;;5110703;28;20040;-74
2023/03/08 08:29:20;;;;;;;15.85;1.70;;;;;;;;;;5109003;28;20051;-73
2023/03/08 08:31:51;;;;;;;7.72;1.10;;;;;;;;;;5108860;27;20044;-76
2023/03/08 08:34:23;;;;;;;4.50;0.93;;;;;;;;;;5109725;28;20487;-75
2023/03/08 08:36:53;;;;;;;11.57;0.95;;;;;;;;;;5108185;27;20048;-73
2023/03/08 08:39:24;;;;;;;7.60;1.25;;;;;;;;;;5108962;28;20115;-73
2023/03/08 08:41:54;;;;;;;13.27;1.60;;;;;;;;;;5109454;28;20522;-74
2023/03/08 08:44:24;;;;;;;9.70;1.15;;;;;;;;;;5108656;28;20052;-74
2023/03/08 08:46:53;;;;;;;12.23;1.40;;;;;;;;;;5109872;28;20048;-76
2023/03/08 08:49:24;;;;;;;6.97;1.10;;;;;;;;;;5109593;28;20048;-73
2023/03/08 08:51:54;;;;;;;6.25;1.27;;;;;;;;;;5107944;27;20055;-73
2023/03/08 08:54:25;;;;;;;10.68;1.15;;;;;;;;;;5109585;28;20585;-73
2023/03/08 08:56:55;;;;;;;9.18;1.45;;;;;;;;;;5109403;28;20044;-73
2023/03/08 08:59:25;;;;;;;7.53;1.50;;;;;;;;;;5109420;28;20047;-75
2023/03/08 09:01:55;;;;;;;3.50;1.30;;;;;;;;;;5109330;28;20048;-73
2023/03/08 09:04:26;;;;;;;10.57;1.42;;;;;;;;;;5108550;28;20047;-74
2023/03/08 09:06:56;;;;;;;8.13;1.58;;;;;;;;;;5108996;28;20502;-73
2023/03/08 09:09:26;;;;;;;19.05;2.05;;;;;;;;;;5108326;28;20052;-75
2023/03/08 09:11:57;;;;;;;12.23;1.67;;;;;;;;;;5108841;28;20494;-73
2023/03/08 09:14:27;;;;;;;5.10;1.50;;;;;;;;;;5108509;28;20054;-72
2023/03/08 09:16:57;;;;;;;5.88;2.15;;;;;;;;;;5108701;28;20054;-72
2023/03/08 09:19:29;;;;;;;13.45;1.85;;;;;;;;;;5108669;28;20051;-73
2023/03/08 09:21:59;;;;;;;2.70;1.15;;;;;;;;;;5108856;28;20047;-75
2023/03/08 09:24:30;;;;;;;12.55;1.52;;;;;;;;;;5108391;28;20074;-74
2023/03/08 09:27:00;;;;;;;5.43;1.45;;;;;;;;;;5107102;28;20619;-75
2023/03/08 09:29:32;;;;;;;4.53;1.38;;;;;;;;;;5108515;28;20069;-74
2023/03/08 09:32:04;;;;;;;10.52;1.42;;;;;;;;;;5108191;28;20044;-73
2023/03/08 09:34:34;;;;;;;14.75;1.50;;;;;;;;;;5108334;28;20039;-74
2023/03/08 09:37:07;;;;;;;8.40;1.52;;;;;;;;;;5108465;28;20043;-73
2023/03/08 09:39:39;;;;;;;7.72;1.33;;;;;;;;;;5107877;28;20062;-75
2023/03/08 09:42:26;;;;;;;3.55;1.10;;;;;;;;;;5108191;28;20043;-72
2023/03/08 09:45:11;;;;;;;6.78;1.17;;;;;;;;;;5107759;28;20710;-73
2023/03/08 09:47:45;;;;;;;14.30;1.20;;;;;;;;;;5108780;28;20047;-74
2023/03/08 09:50:19;;;;;;;5.22;1.30;;;;;;;;;;5107849;28;20048;-72
2023/03/08 09:52:59;;;;;;;4.07;1.20;;;;;;;;;;5107683;28;20044;-73
2023/03/08 09:55:33;;;;;;;6.05;1.38;;;;;;;;;;5107765;28;20035;-74
2023/03/08 09:58:33;;;;;;;11.55;1.30;;;;;;;;;;5106401;28;20519;-74
2023/03/08 10:01:15;;;;;;;9.27;1.25;;;;;;;;;;5107357;28;20777;-75
2023/03/08 10:04:02;;;;;;;12.95;1.48;;;;;;;;;;5107772;28;20043;-75
2023/03/08 10:06:54;;;;;;;7.97;1.20;;;;;;;;;;5108053;28;20043;-73
2023/03/08 10:09:46;;;;;;;14.25;1.80;;;;;;;;;;5106391;28;20398;-73
2023/03/08 10:12:28;;;;;;;11.48;1.35;;;;;;;;;;5105934;28;20043;-74
2023/03/08 10:15:24;;;;;;;6.63;1.60;;;;;;;;;;5086494;28;20048;-74
2023/03/08 10:18:16;;;;;;;8.25;2.03;;;;;;;;;;5085910;28;20055;-74
2023/03/08 10:20:48;;;;;;;8.75;1.95;;;;;;;;;;5087021;28;20048;-74
2023/03/08 10:23:20;;;;;;;18.05;1.73;;;;;;;;;;5086782;28;20368;-73
2023/03/08 10:25:51;;;;;;;4.07;1.33;;;;;;;;;;5086453;28;20052;-73
2023/03/08 10:28:24;;;;;;;12.32;1.90;;;;;;;;;;5085925;28;20075;-73
2023/03/08 10:31:00;;;;;;;6.47;1.50;;;;;;;;;;5087291;28;20561;-75
2023/03/08 10:33:35;;;;;;;9.30;1.40;;;;;;;;;;5086384;28;20050;-73
2023/03/08 10:36:23;;;;;;;9.60;1.25;;;;;;;;;;5086575;28;20048;-75
2023/03/08 10:39:09;;;;;;;2.25;0.80;;;;;;;;;;5086995;28;20048;-75
2023/03/08 10:52:28;;;;;;;5.15;1.17;;;;;;;;;;5144542;27;20895;-74
2023/03/08 10:55:17;;;;;;;7.60;1.02;;;;;;;;;;5105065;28;20055;-72
2023/03/08 10:57:56;;;;;;;5.80;1.00;;;;;;;;;;5124358;28;20047;-72
2023/03/08 11:00:32;;;;;;;7.40;0.68;;;;;;;;;;5124358;28;20719;-74
2023/03/08 11:03:23;;;;;;;7.45;0.90;;;;;;;;;;5124155;28;20039;-72
2023/03/08 11:06:03;;;;;;;7.00;1.67;;;;;;;;;;5124514;27;20043;-73
2023/03/08 11:08:36;;;;;;;10.40;1.20;;;;;;;;;;5124413;28;20058;-74
2023/03/08 11:11:11;;;;;;;9.98;0.80;;;;;;;;;;5106138;28;20054;-72
2023/03/08 11:13:46;;;;;;;4.20;0.80;;;;;;;;;;5125429;28;20051;-73
2023/03/08 11:16:25;;;;;;;4.68;1.02;;;;;;;;;;5123951;27;20055;-74
2023/03/08 11:19:17;;;;;;;8.90;1.10;;;;;;;;;;5124005;27;20047;-72
2023/03/08 11:22:34;;;;;;;16.55;1.50;;;;;;;;;;5124519;28;20051;-73
2023/03/08 11:25:15;;;;;;;14.13;2.22;;;;;;;;;;5123851;27;20044;-73
2023/03/08 11:28:14;;;;;;;4.45;1.27;;;;;;;;;;5121636;28;20055;-76
2023/03/08 11:30:58;;;;;;;6.65;1.15;;;;;;;;;;5123923;28;20047;-73
2023/03/08 11:33:47;;;;;;;4.10;1.20;;;;;;;;;;5123648;28;20055;-75
2023/03/08 11:36:26;;;;;;;8.73;1.45;;;;;;;;;;5122242;28;20051;-75
2023/03/08 11:39:18;;;;;;;4.60;1.50;;;;;;;;;;5124459;28;20078;-74
2023/03/08 11:42:10;;;;;;;3.03;1.08;;;;;;;;;;5106015;28;20052;-74
2023/03/08 11:45:00;;;;;;;5.70;1.20;;;;;;;;;;5103980;28;20509;-74
2023/03/08 11:47:52;;;;;;;4.15;1.40;;;;;;;;;;5102574;28;20053;-74
2023/03/08 11:50:26;;;;;;;1.73;1.30;;;;;;;;;;5103061;28;20052;-73
2023/03/08 11:53:16;;;;;;;3.58;1.55;;;;;;;;;;5072681;28;20051;-74
2023/03/08 11:56:07;;;;;;;2.83;1.52;;;;;;;;;;5089505;28;20040;-75
2023/03/08 11:58:52;;;;;;;5.13;2.42;;;;;;;;;;5089441;28;20048;-74
2023/03/08 12:01:40;;;;;;;6.85;1.80;;;;;;;;;;5054271;28;20052;-75
2023/03/08 12:04:24;;;;;;;11.80;1.85;;;;;;;;;;5089033;28;20339;-76
2023/03/08 12:06:55;;;;;;;5.90;1.80;;;;;;;;;;5089295;28;20514;-77
2023/03/08 12:09:36;;;;;;;8.05;1.50;;;;;;;;;;5088444;28;20055;-75
2023/03/08 12:12:18;;;;;;;11.43;1.90;;;;;;;;;;5088740;28;20044;-76
2023/03/08 12:14:55;;;;;;;10.63;2.10;;;;;;;;;;5070959;28;20048;-75
2023/03/08 12:17:37;;;;;;;10.02;1.90;;;;;;;;;;5089311;28;20716;-75
2023/03/08 12:20:14;;;;;;;7.32;1.92;;;;;;;;;;5088927;28;20048;-73
2023/03/08 12:23:01;;;;;;;4.03;1.92;;;;;;;;;;5089191;28;20088;-75
2023/03/08 12:25:38;;;;;;;5.32;2.15;;;;;;;;;;5088882;28;20051;-74
2023/03/08 12:28:30;;;;;;;5.72;1.70;;;;;;;;;;5089346;28;20059;-74
2023/03/08 12:31:22;;;;;;;6.15;1.58;;;;;;;;;;5088911;28;20040;-75
2023/03/08 12:33:59;;;;;;;8.75;2.63;;;;;;;;;;5086322;28;20047;-76
2023/03/08 12:36:40;;;;;;;10.32;2.20;;;;;;;;;;5088535;28;20051;-75
2023/03/08 12:39:33;;;;;;;6.43;2.33;;;;;;;;;;5088122;28;20058;-73
2023/03/08 12:42:10;;;;;;;10.93;2.30;;;;;;;;;;5085861;28;20517;-75
2023/03/08 12:44:42;;;;;;;3.95;1.65;;;;;;;;;;5087053;28;20525;-75
2023/03/08 12:47:12;;;;;;;8.82;2.03;;;;;;;;;;5087538;28;20044;-75
2023/03/08 12:49:51;;;;;;;6.50;1.98;;;;;;;;;;5087537;28;20052;-75
2023/03/08 12:52:27;;;;;;;6.60;2.25;;;;;;;;;;5087255;28;20036;-76
2023/03/08 12:55:00;;;;;;;9.40;3.25;;;;;;;;;;5070549;28;20055;-76
2023/03/08 12:57:41;;;;;;;12.70;3.97;;;;;;;;;;5087182;28;20047;-76
2023/03/08 13:00:27;;;;;;;5.07;2.00;;;;;;;;;;5087248;28;20048;-75
2023/03/08 13:03:03;;;;;;;8.00;2.28;;;;;;;;;;5086104;28;20040;-74
2023/03/08 13:05:39;;;;;;;8.55;1.90;;;;;;;;;;5085087;28;20051;-74
2023/03/08 13:08:17;;;;;;;7.03;1.73;;;;;;;;;;5086966;28;20040;-73
2023/03/08 13:10:53;;;;;;;7.03;1.50;;;;;;;;;;5082735;28;20051;-75
2023/03/08 13:13:57;;;;;;;4.88;1.52;;;;;;;;;;5085440;28;20048;-75
2023/03/08 13:16:37;;;;;;;10.32;3.60;;;;;;;;;;5086816;28;20048;-78
2023/03/08 13:19:14;;;;;;;5.90;1.80;;;;;;;;;;5086245;28;20545;-73
2023/03/08 13:22:26;;;;;;;7.63;2.03;;;;;;;;;;5086873;28;20402;-75
2023/03/08 13:25:03;;;;;;;9.13;2.13;;;;;;;;;;5049599;28;20517;-74
2023/03/08 13:27:49;;;;;;;8.85;2.03;;;;;;;;;;5085557;28;20059;-78
2023/03/08 13:30:45;;;;;;;4.53;1.52;;;;;;;;;;5086305;28;20051;-76
2023/03/08 13:33:48;;;;;;;6.07;2.08;;;;;;;;;;5086130;28;20070;-73
2023/03/08 13:36:30;;;;;;;9.15;2.03;;;;;;;;;;5086397;28;20055;-75
2023/03/08 13:39:08;;;;;;;7.63;2.40;;;;;;;;;;5085708;28;20048;-75
2023/03/08 13:41:41;;;;;;;8.77;1.77;;;;;;;;;;5085643;28;20052;-77
2023/03/08 13:44:21;;;;;;;5.82;2.13;;;;;;;;;;5085593;28;20044;-76
2023/03/08 13:47:00;;;;;;;3.30;1.88;;;;;;;;;;5086313;28;20036;-75
2023/03/08 13:49:42;;;;;;;5.60;2.10;;;;;;;;;;5086303;28;20054;-79
2023/03/08 13:52:24;;;;;;;7.55;2.10;;;;;;;;;;5084746;28;20558;-77
2023/03/08 13:54:58;;;;;;;11.30;3.63;;;;;;;;;;5086194;28;20048;-76
2023/03/08 13:57:32;;;;;;;3.53;1.88;;;;;;;;;;5086010;28;20048;-75
2023/03/08 14:00:31;;;;;;;5.30;2.25;;;;;;;;;;5086083;28;20040;-75
2023/03/08 14:03:06;;;;;;;8.85;2.35;;;;;;;;;;5084951;28;20052;-76
2023/03/08 14:05:44;;;;;;;7.97;1.88;;;;;;;;;;5085621;28;20044;-77
2023/03/08 14:08:23;;;;;;;4.97;1.77;;;;;;;;;;5084917;28;20048;-75
2023/03/08 14:11:05;;;;;;;5.13;1.88;;;;;;;;;;5084288;28;20055;-75
2023/03/08 14:13:41;;;;;;;7.07;2.10;;;;;;;;;;5084580;28;20052;-73
2023/03/08 14:16:33;;;;;;;8.82;2.00;;;;;;;;;;5085572;28;20047;-76
2023/03/08 14:19:23;;;;;;;4.53;1.73;;;;;;;;;;5084400;28;20506;-76
2023/03/08 14:22:03;;;;;;;4.50;2.20;;;;;;;;;;5085856;28;20059;-77
2023/03/08 14:24:35;;;;;;;2.72;1.67;;;;;;;;;;5085993;28;20040;-75
2023/03/08 14:27:14;;;;;;;5.82;1.85;;;;;;;;;;5084867;28;20918;-74
2023/03/08 14:29:46;;;;;;;2.45;1.70;;;;;;;;;;5065144;28;20051;-74
2023/03/08 14:32:17;;;;;;;5.35;1.98;;;;;;;;;;5083975;28;20044;-74
2023/03/08 14:34:49;;;;;;;4.40;1.50;;;;;;;;;;5086009;28;20164;-78
2023/03/08 14:37:30;;;;;;;3.25;1.80;;;;;;;;;;5086594;28;20051;-75
2023/03/08 14:40:35;;;;;;;4.50;1.70;;;;;;;;;;5085894;28;20178;-74
2023/03/08 14:43:14;;;;;;;3.47;1.50;;;;;;;;;;5086739;28;20047;-71
2023/03/08 14:46:00;;;;;;;10.52;1.88;;;;;;;;;;5086266;28;20036;-74
2023/03/08 14:48:31;;;;;;;5.03;1.73;;;;;;;;;;5085094;28;20039;-72
2023/03/08 14:51:27;;;;;;;3.17;1.38;;;;;;;;;;5082940;28;20063;-74
2023/03/08 14:54:04;;;;;;;4.05;1.60;;;;;;;;;;5083936;28;20048;-76
2023/03/08 14:56:35;;;;;;;5.90;1.70;;;;;;;;;;5082898;28;20036;-75
2023/03/08 14:59:05;;;;;;;5.97;2.15;;;;;;;;;;5085406;28;20098;-77
2023/03/08 15:01:44;;;;;;;5.85;1.40;;;;;;;;;;5085565;28;20048;-74
2023/03/08 15:04:19;;;;;;;8.70;1.60;;;;;;;;;;5067670;28;20044;-75
2023/03/08 15:06:50;;;;;;;;;;;;;;;;;;5083700;28;20056;-76
2023/03/08 15:09:22;;;;;;;7.97;2.78;;;;;;;;;;5085283;28;19920;-73
2023/03/08 15:11:57;;;;;;;4.28;1.73;;;;;;;;;;5084119;28;20051;-74
2023/03/08 15:14:29;;;;;;;5.07;1.88;;;;;;;;;;5084408;28;20510;-74
2023/03/08 15:16:59;;;;;;;2.25;1.30;;;;;;;;;;5086065;28;20505;-74
2023/03/08 15:19:29;;;;;;;3.47;1.33;;;;;;;;;;5086250;28;20048;-74
2023/03/08 15:22:01;;;;;;;9.07;1.70;;;;;;;;;;5086336;28;20510;-76
2023/03/08 15:24:31;;;;;;;2.15;1.17;;;;;;;;;;5086622;28;20506;-76
2023/03/08 15:27:01;;;;;;;2.67;1.50;;;;;;;;;;5086819;28;20373;-74
2023/03/08 15:29:35;;;;;;;6.25;1.20;;;;;;;;;;5089499;28;20051;-75
2023/03/08 15:32:06;;;;;;;3.95;1.20;;;;;;;;;;5089205;28;20051;-76
2023/03/08 15:34:38;;;;;;;4.80;1.20;;;;;;;;;;5088997;28;20047;-73
2023/03/08 15:37:14;;;;;;;2.70;1.10;;;;;;;;;;5086318;28;20047;-72
2023/03/08 15:39:44;;;;;;;3.60;1.33;;;;;;;;;;5089228;28;20778;-72